sensor_id;sensor_type;location;lat;lon;timestamp;temperature;humidity
78896;HTU21D;68284;59.124;37.910;2023-06-19T00:01:26;13.61;50.47
78896;HTU21D;68284;59.124;37.910;2023-06-19T00:03:52;13.62;50.50
78896;HTU21D;68284;59.124;37.910;2023-06-19T00:06:18;13.60;50.35
78896;HTU21D;68284;59.124;37.910;2023-06-19T00:08:44;13.58;50.55
78896;HTU21D;68284;59.124;37.910;2023-06-19T00:11:11;13.60;50.34
78896;HTU21D;68284;59.124;37.910;2023-06-19T00:13:37;13.62;50.56
78896;HTU21D;68284;59.124;37.910;2023-06-19T00:16:04;13.64;50.72
78896;HTU21D;68284;59.124;37.910;2023-06-19T00:18:30;13.67;50.88
78896;HTU21D;68284;59.124;37.910;2023-06-19T00:20:57;13.69;51.01
78896;HTU21D;68284;59.124;37.910;2023-06-19T00:23:23;13.74;51.11
78896;HTU21D;68284;59.124;37.910;2023-06-19T00:25:49;13.78;51.15
78896;HTU21D;68284;59.124;37.910;2023-06-19T00:28:16;13.82;51.14
78896;HTU21D;68284;59.124;37.910;2023-06-19T00:30:46;13.89;51.17
78896;HTU21D;68284;59.124;37.910;2023-06-19T00:33:13;13.97;51.11
78896;HTU21D;68284;59.124;37.910;2023-06-19T00:35:40;14.03;51.08
78896;HTU21D;68284;59.124;37.910;2023-06-19T00:38:07;14.09;51.08
78896;HTU21D;68284;59.124;37.910;2023-06-19T00:40:34;14.10;51.21
78896;HTU21D;68284;59.124;37.910;2023-06-19T00:43:01;14.12;51.34
78896;HTU21D;68284;59.124;37.910;2023-06-19T00:45:28;14.19;51.46
78896;HTU21D;68284;59.124;37.910;2023-06-19T00:47:57;14.23;51.52
78896;HTU21D;68284;59.124;37.910;2023-06-19T00:50:25;14.25;51.51
78896;HTU21D;68284;59.124;37.910;2023-06-19T00:52:53;14.29;51.52
78896;HTU21D;68284;59.124;37.910;2023-06-19T00:55:21;14.30;51.58
78896;HTU21D;68284;59.124;37.910;2023-06-19T00:57:48;14.30;51.65
78896;HTU21D;68284;59.124;37.910;2023-06-19T01:00:15;14.32;51.66
78896;HTU21D;68284;59.124;37.910;2023-06-19T01:02:42;14.36;51.67
78896;HTU21D;68284;59.124;37.910;2023-06-19T01:05:08;14.38;51.57
78896;HTU21D;68284;59.124;37.910;2023-06-19T01:07:57;14.42;51.85
78896;HTU21D;68284;59.124;37.910;2023-06-19T01:10:28;14.45;51.53
78896;HTU21D;68284;59.124;37.910;2023-06-19T01:13:14;14.50;51.45
78896;HTU21D;68284;59.124;37.910;2023-06-19T01:15:43;14.54;51.20
78896;HTU21D;68284;59.124;37.910;2023-06-19T01:18:10;14.62;51.10
78896;HTU21D;68284;59.124;37.910;2023-06-19T01:20:37;14.67;51.00
78896;HTU21D;68284;59.124;37.910;2023-06-19T01:23:11;14.75;51.02
78896;HTU21D;68284;59.124;37.910;2023-06-19T01:25:39;14.81;50.95
78896;HTU21D;68284;59.124;37.910;2023-06-19T01:28:08;14.85;50.93
78896;HTU21D;68284;59.124;37.910;2023-06-19T01:30:38;14.86;50.91
78896;HTU21D;68284;59.124;37.910;2023-06-19T01:33:12;14.92;50.94
78896;HTU21D;68284;59.124;37.910;2023-06-19T01:35:43;14.96;50.82
78896;HTU21D;68284;59.124;37.910;2023-06-19T01:38:12;14.99;50.77
78896;HTU21D;68284;59.124;37.910;2023-06-19T01:40:40;15.00;50.81
78896;HTU21D;68284;59.124;37.910;2023-06-19T01:43:08;15.00;50.96
78896;HTU21D;68284;59.124;37.910;2023-06-19T01:45:35;15.01;51.19
78896;HTU21D;68284;59.124;37.910;2023-06-19T01:48:02;15.00;51.30
78896;HTU21D;68284;59.124;37.910;2023-06-19T01:50:28;15.02;51.32
78896;HTU21D;68284;59.124;37.910;2023-06-19T01:52:55;15.09;51.33
78896;HTU21D;68284;59.124;37.910;2023-06-19T01:55:22;15.23;51.19
78896;HTU21D;68284;59.124;37.910;2023-06-19T01:57:48;15.45;50.79
78896;HTU21D;68284;59.124;37.910;2023-06-19T02:00:15;15.62;50.55
78896;HTU21D;68284;59.124;37.910;2023-06-19T02:02:42;15.74;50.36
78896;HTU21D;68284;59.124;37.910;2023-06-19T02:05:10;15.80;50.30
78896;HTU21D;68284;59.124;37.910;2023-06-19T02:07:37;15.82;50.25
78896;HTU21D;68284;59.124;37.910;2023-06-19T02:10:04;15.81;50.14
78896;HTU21D;68284;59.124;37.910;2023-06-19T02:12:31;15.83;50.09
78896;HTU21D;68284;59.124;37.910;2023-06-19T02:14:58;15.83;50.13
78896;HTU21D;68284;59.124;37.910;2023-06-19T02:17:24;15.83;50.11
78896;HTU21D;68284;59.124;37.910;2023-06-19T02:19:51;15.85;50.13
78896;HTU21D;68284;59.124;37.910;2023-06-19T02:22:18;15.85;50.02
78896;HTU21D;68284;59.124;37.910;2023-06-19T02:24:44;15.89;49.85
78896;HTU21D;68284;59.124;37.910;2023-06-19T02:27:13;15.90;49.72
78896;HTU21D;68284;59.124;37.910;2023-06-19T02:29:39;15.91;49.47
78896;HTU21D;68284;59.124;37.910;2023-06-19T02:32:05;15.92;49.24
78896;HTU21D;68284;59.124;37.910;2023-06-19T02:34:33;15.92;49.11
78896;HTU21D;68284;59.124;37.910;2023-06-19T02:37:00;15.93;49.00
78896;HTU21D;68284;59.124;37.910;2023-06-19T02:39:27;15.93;48.93
78896;HTU21D;68284;59.124;37.910;2023-06-19T02:41:53;15.91;48.98
78896;HTU21D;68284;59.124;37.910;2023-06-19T02:44:35;15.90;49.02
78896;HTU21D;68284;59.124;37.910;2023-06-19T02:47:02;15.92;49.03
78896;HTU21D;68284;59.124;37.910;2023-06-19T02:49:28;15.96;49.05
78896;HTU21D;68284;59.124;37.910;2023-06-19T02:52:13;16.03;48.90
78896;HTU21D;68284;59.124;37.910;2023-06-19T02:54:39;16.11;48.83
78896;HTU21D;68284;59.124;37.910;2023-06-19T02:57:06;16.20;48.78
78896;HTU21D;68284;59.124;37.910;2023-06-19T02:59:32;16.39;48.60
78896;HTU21D;68284;59.124;37.910;2023-06-19T03:01:59;16.60;48.46
78896;HTU21D;68284;59.124;37.910;2023-06-19T03:04:25;16.77;48.81
78896;HTU21D;68284;59.124;37.910;2023-06-19T03:06:53;16.94;49.15
78896;HTU21D;68284;59.124;37.910;2023-06-19T03:09:19;17.18;49.11
78896;HTU21D;68284;59.124;37.910;2023-06-19T03:11:46;17.47;48.63
78896;HTU21D;68284;59.124;37.910;2023-06-19T03:14:13;17.75;47.98
78896;HTU21D;68284;59.124;37.910;2023-06-19T03:16:39;17.99;47.62
78896;HTU21D;68284;59.124;37.910;2023-06-19T03:19:06;18.19;47.57
78896;HTU21D;68284;59.124;37.910;2023-06-19T03:21:33;18.32;47.77
78896;HTU21D;68284;59.124;37.910;2023-06-19T03:24:01;18.33;48.18
78896;HTU21D;68284;59.124;37.910;2023-06-19T03:26:28;18.32;48.21
78896;HTU21D;68284;59.124;37.910;2023-06-19T03:28:59;18.30;47.87
78896;HTU21D;68284;59.124;37.910;2023-06-19T03:31:28;18.42;47.53
78896;HTU21D;68284;59.124;37.910;2023-06-19T03:33:55;18.51;47.24
78896;HTU21D;68284;59.124;37.910;2023-06-19T03:36:22;18.52;47.07
78896;HTU21D;68284;59.124;37.910;2023-06-19T03:38:51;18.54;46.73
78896;HTU21D;68284;59.124;37.910;2023-06-19T03:41:21;18.68;46.25
78896;HTU21D;68284;59.124;37.910;2023-06-19T03:43:48;18.76;45.75
78896;HTU21D;68284;59.124;37.910;2023-06-19T03:46:15;18.77;45.70
78896;HTU21D;68284;59.124;37.910;2023-06-19T03:48:59;18.73;45.41
78896;HTU21D;68284;59.124;37.910;2023-06-19T03:51:28;18.81;44.77
78896;HTU21D;68284;59.124;37.910;2023-06-19T03:53:55;18.91;44.46
78896;HTU21D;68284;59.124;37.910;2023-06-19T03:56:21;18.95;44.38
78896;HTU21D;68284;59.124;37.910;2023-06-19T03:58:48;19.00;44.28
78896;HTU21D;68284;59.124;37.910;2023-06-19T04:01:14;19.07;44.33
78896;HTU21D;68284;59.124;37.910;2023-06-19T04:03:40;19.09;44.39
78896;HTU21D;68284;59.124;37.910;2023-06-19T04:06:07;19.10;44.42
78896;HTU21D;68284;59.124;37.910;2023-06-19T04:08:34;19.11;44.29
78896;HTU21D;68284;59.124;37.910;2023-06-19T04:11:18;19.15;43.97
78896;HTU21D;68284;59.124;37.910;2023-06-19T04:13:45;19.22;43.87
78896;HTU21D;68284;59.124;37.910;2023-06-19T04:16:13;19.31;43.76
78896;HTU21D;68284;59.124;37.910;2023-06-19T04:18:58;19.46;43.14
78896;HTU21D;68284;59.124;37.910;2023-06-19T04:21:25;19.62;42.73
78896;HTU21D;68284;59.124;37.910;2023-06-19T04:23:52;19.75;42.31
78896;HTU21D;68284;59.124;37.910;2023-06-19T04:26:18;19.88;42.15
78896;HTU21D;68284;59.124;37.910;2023-06-19T04:28:47;20.00;42.20
78896;HTU21D;68284;59.124;37.910;2023-06-19T04:31:13;20.03;42.08
78896;HTU21D;68284;59.124;37.910;2023-06-19T04:33:45;20.04;41.63
78896;HTU21D;68284;59.124;37.910;2023-06-19T04:36:30;20.05;41.01
78896;HTU21D;68284;59.124;37.910;2023-06-19T04:38:57;20.00;40.84
78896;HTU21D;68284;59.124;37.910;2023-06-19T04:41:27;19.94;41.00
78896;HTU21D;68284;59.124;37.910;2023-06-19T04:43:53;19.88;41.33
78896;HTU21D;68284;59.124;37.910;2023-06-19T04:46:19;19.81;41.81
78896;HTU21D;68284;59.124;37.910;2023-06-19T04:48:46;19.73;42.23
78896;HTU21D;68284;59.124;37.910;2023-06-19T04:51:17;19.67;42.87
78896;HTU21D;68284;59.124;37.910;2023-06-19T04:53:47;19.56;43.14
78896;HTU21D;68284;59.124;37.910;2023-06-19T04:56:32;19.47;42.99
78896;HTU21D;68284;59.124;37.910;2023-06-19T04:58:58;19.51;42.29
78896;HTU21D;68284;59.124;37.910;2023-06-19T05:01:27;19.51;42.06
78896;HTU21D;68284;59.124;37.910;2023-06-19T05:03:56;19.60;41.28
78896;HTU21D;68284;59.124;37.910;2023-06-19T05:06:23;19.77;40.65
78896;HTU21D;68284;59.124;37.910;2023-06-19T05:08:50;19.98;39.78
78896;HTU21D;68284;59.124;37.910;2023-06-19T05:11:16;20.19;39.02
78896;HTU21D;68284;59.124;37.910;2023-06-19T05:13:42;20.29;38.51
78896;HTU21D;68284;59.124;37.910;2023-06-19T05:16:09;20.41;38.22
78896;HTU21D;68284;59.124;37.910;2023-06-19T05:18:54;20.59;37.62
78896;HTU21D;68284;59.124;37.910;2023-06-19T05:21:20;20.77;37.43
78896;HTU21D;68284;59.124;37.910;2023-06-19T05:23:47;20.94;36.63
78896;HTU21D;68284;59.124;37.910;2023-06-19T05:26:16;21.00;36.39
78896;HTU21D;68284;59.124;37.910;2023-06-19T05:28:43;21.13;36.24
78896;HTU21D;68284;59.124;37.910;2023-06-19T05:31:09;21.38;35.40
78896;HTU21D;68284;59.124;37.910;2023-06-19T05:33:54;21.65;34.86
78896;HTU21D;68284;59.124;37.910;2023-06-19T05:36:21;21.79;34.16
78896;HTU21D;68284;59.124;37.910;2023-06-19T05:41:32;21.83;33.83
78896;HTU21D;68284;59.124;37.910;2023-06-19T05:44:00;21.82;33.71
78896;HTU21D;68284;59.124;37.910;2023-06-19T05:46:26;21.80;33.45
78896;HTU21D;68284;59.124;37.910;2023-06-19T05:48:52;21.80;33.59
78896;HTU21D;68284;59.124;37.910;2023-06-19T05:51:20;21.89;33.18
78896;HTU21D;68284;59.124;37.910;2023-06-19T05:53:47;21.94;32.98
78896;HTU21D;68284;59.124;37.910;2023-06-19T05:56:16;22.01;32.84
78896;HTU21D;68284;59.124;37.910;2023-06-19T05:58:42;22.11;32.48
78896;HTU21D;68284;59.124;37.910;2023-06-19T06:01:08;22.24;32.22
78896;HTU21D;68284;59.124;37.910;2023-06-19T06:06:39;22.68;32.14
78896;HTU21D;68284;59.124;37.910;2023-06-19T06:09:06;22.84;31.83
78896;HTU21D;68284;59.124;37.910;2023-06-19T06:11:35;22.98;31.53
78896;HTU21D;68284;59.124;37.910;2023-06-19T06:14:03;23.02;31.24
78896;HTU21D;68284;59.124;37.910;2023-06-19T06:16:29;22.99;31.27
78896;HTU21D;68284;59.124;37.910;2023-06-19T06:18:56;22.91;31.49
78896;HTU21D;68284;59.124;37.910;2023-06-19T06:21:22;22.82;31.71
78896;HTU21D;68284;59.124;37.910;2023-06-19T06:26:54;22.75;32.06
78896;HTU21D;68284;59.124;37.910;2023-06-19T06:29:21;22.84;32.09
78896;HTU21D;68284;59.124;37.910;2023-06-19T06:31:47;22.86;32.09
78896;HTU21D;68284;59.124;37.910;2023-06-19T06:34:14;22.81;32.10
78896;HTU21D;68284;59.124;37.910;2023-06-19T06:36:42;22.79;32.11
78896;HTU21D;68284;59.124;37.910;2023-06-19T06:39:09;22.78;32.09
78896;HTU21D;68284;59.124;37.910;2023-06-19T06:41:35;22.78;31.97
78896;HTU21D;68284;59.124;37.910;2023-06-19T06:44:23;22.79;31.77
78896;HTU21D;68284;59.124;37.910;2023-06-19T06:46:49;22.80;31.68
78896;HTU21D;68284;59.124;37.910;2023-06-19T06:49:16;22.82;31.72
78896;HTU21D;68284;59.124;37.910;2023-06-19T06:51:43;22.90;31.53
78896;HTU21D;68284;59.124;37.910;2023-06-19T06:54:10;22.96;31.43
78896;HTU21D;68284;59.124;37.910;2023-06-19T06:56:36;22.94;31.51
78896;HTU21D;68284;59.124;37.910;2023-06-19T06:59:21;22.93;31.52
78896;HTU21D;68284;59.124;37.910;2023-06-19T07:01:47;22.93;31.65
78896;HTU21D;68284;59.124;37.910;2023-06-19T07:04:14;23.01;31.72
78896;HTU21D;68284;59.124;37.910;2023-06-19T07:09:25;23.23;31.55
78896;HTU21D;68284;59.124;37.910;2023-06-19T07:11:51;23.24;31.39
78896;HTU21D;68284;59.124;37.910;2023-06-19T07:14:18;23.25;31.23
78896;HTU21D;68284;59.124;37.910;2023-06-19T07:16:44;23.24;31.22
78896;HTU21D;68284;59.124;37.910;2023-06-19T07:19:11;23.20;31.06
78896;HTU21D;68284;59.124;37.910;2023-06-19T07:21:38;23.14;31.03
78896;HTU21D;68284;59.124;37.910;2023-06-19T07:24:06;23.10;31.16
78896;HTU21D;68284;59.124;37.910;2023-06-19T07:26:32;23.12;31.22
78896;HTU21D;68284;59.124;37.910;2023-06-19T07:28:58;23.12;30.99
78896;HTU21D;68284;59.124;37.910;2023-06-19T07:31:43;23.12;30.87
78896;HTU21D;68284;59.124;37.910;2023-06-19T07:34:10;23.09;31.22
78896;HTU21D;68284;59.124;37.910;2023-06-19T07:36:36;23.00;31.39
78896;HTU21D;68284;59.124;37.910;2023-06-19T07:41:47;22.84;31.51
78896;HTU21D;68284;59.124;37.910;2023-06-19T07:44:32;22.85;31.61
78896;HTU21D;68284;59.124;37.910;2023-06-19T07:46:58;22.88;31.72
78896;HTU21D;68284;59.124;37.910;2023-06-19T07:49:24;23.02;31.48
78896;HTU21D;68284;59.124;37.910;2023-06-19T07:51:51;23.15;31.04
78896;HTU21D;68284;59.124;37.910;2023-06-19T07:54:36;23.21;30.86
78896;HTU21D;68284;59.124;37.910;2023-06-19T07:57:03;23.21;30.83
78896;HTU21D;68284;59.124;37.910;2023-06-19T07:59:49;23.17;30.98
78896;HTU21D;68284;59.124;37.910;2023-06-19T08:02:16;23.15;31.06
78896;HTU21D;68284;59.124;37.910;2023-06-19T08:04:43;23.01;31.17
78896;HTU21D;68284;59.124;37.910;2023-06-19T08:07:28;22.90;31.45
78896;HTU21D;68284;59.124;37.910;2023-06-19T08:09:54;22.90;31.46
78896;HTU21D;68284;59.124;37.910;2023-06-19T08:12:21;22.91;31.40
78896;HTU21D;68284;59.124;37.910;2023-06-19T08:14:47;23.00;31.19
78896;HTU21D;68284;59.124;37.910;2023-06-19T08:17:13;23.06;31.17
78896;HTU21D;68284;59.124;37.910;2023-06-19T08:19:58;23.17;31.10
78896;HTU21D;68284;59.124;37.910;2023-06-19T08:22:24;23.22;31.10
78896;HTU21D;68284;59.124;37.910;2023-06-19T08:24:51;23.32;31.04
78896;HTU21D;68284;59.124;37.910;2023-06-19T08:27:18;23.47;30.55
78896;HTU21D;68284;59.124;37.910;2023-06-19T08:30:03;23.57;30.25
78896;HTU21D;68284;59.124;37.910;2023-06-19T08:32:31;23.67;30.09
78896;HTU21D;68284;59.124;37.910;2023-06-19T08:35:16;23.82;29.93
78896;HTU21D;68284;59.124;37.910;2023-06-19T08:37:42;24.00;29.70
78896;HTU21D;68284;59.124;37.910;2023-06-19T08:40:09;24.04;29.32
78896;HTU21D;68284;59.124;37.910;2023-06-19T08:42:54;24.06;29.10
78896;HTU21D;68284;59.124;37.910;2023-06-19T08:45:22;24.00;29.18
78896;HTU21D;68284;59.124;37.910;2023-06-19T08:47:48;23.95;29.07
78896;HTU21D;68284;59.124;37.910;2023-06-19T08:50:16;23.92;29.15
78896;HTU21D;68284;59.124;37.910;2023-06-19T08:52:43;23.92;29.04
78896;HTU21D;68284;59.124;37.910;2023-06-19T08:55:09;23.87;28.81
78896;HTU21D;68284;59.124;37.910;2023-06-19T08:57:38;23.83;28.72
78896;HTU21D;68284;59.124;37.910;2023-06-19T09:02:51;23.68;29.06
78896;HTU21D;68284;59.124;37.910;2023-06-19T09:08:04;23.82;28.86
78896;HTU21D;68284;59.124;37.910;2023-06-19T09:10:35;23.94;29.11
78896;HTU21D;68284;59.124;37.910;2023-06-19T09:13:04;23.94;29.46
78896;HTU21D;68284;59.124;37.910;2023-06-19T09:15:35;23.88;30.00
78896;HTU21D;68284;59.124;37.910;2023-06-19T09:18:12;23.87;30.34
78896;HTU21D;68284;59.124;37.910;2023-06-19T09:20:40;23.91;30.58
78896;HTU21D;68284;59.124;37.910;2023-06-19T09:23:11;24.01;30.67
78896;HTU21D;68284;59.124;37.910;2023-06-19T09:28:23;24.14;30.97
78896;HTU21D;68284;59.124;37.910;2023-06-19T09:31:01;24.15;31.02
78896;HTU21D;68284;59.124;37.910;2023-06-19T09:33:31;24.10;31.35
78896;HTU21D;68284;59.124;37.910;2023-06-19T09:36:00;24.08;31.57
78896;HTU21D;68284;59.124;37.910;2023-06-19T09:38:35;24.17;31.37
78896;HTU21D;68284;59.124;37.910;2023-06-19T09:41:04;24.31;31.22
78896;HTU21D;68284;59.124;37.910;2023-06-19T09:43:40;24.42;31.16
78896;HTU21D;68284;59.124;37.910;2023-06-19T09:46:10;24.51;31.06
78896;HTU21D;68284;59.124;37.910;2023-06-19T09:48:45;24.58;30.96
78896;HTU21D;68284;59.124;37.910;2023-06-19T09:51:20;24.69;30.90
78896;HTU21D;68284;59.124;37.910;2023-06-19T09:53:51;24.74;30.84
78896;HTU21D;68284;59.124;37.910;2023-06-19T09:56:36;24.65;30.96
78896;HTU21D;68284;59.124;37.910;2023-06-19T09:59:04;24.56;31.20
78896;HTU21D;68284;59.124;37.910;2023-06-19T10:01:31;24.50;31.39
78896;HTU21D;68284;59.124;37.910;2023-06-19T10:04:06;24.47;31.57
78896;HTU21D;68284;59.124;37.910;2023-06-19T10:06:33;24.56;31.43
78896;HTU21D;68284;59.124;37.910;2023-06-19T10:09:09;24.76;31.09
78896;HTU21D;68284;59.124;37.910;2023-06-19T10:11:46;25.01;30.81
78896;HTU21D;68284;59.124;37.910;2023-06-19T10:14:13;25.16;30.51
78896;HTU21D;68284;59.124;37.910;2023-06-19T10:16:40;25.20;30.42
78896;HTU21D;68284;59.124;37.910;2023-06-19T10:19:17;25.28;30.30
78896;HTU21D;68284;59.124;37.910;2023-06-19T10:21:45;25.24;30.28
78896;HTU21D;68284;59.124;37.910;2023-06-19T10:24:17;25.28;30.35
78896;HTU21D;68284;59.124;37.910;2023-06-19T10:29:42;25.34;30.35
78896;HTU21D;68284;59.124;37.910;2023-06-19T10:32:09;25.23;30.52
78896;HTU21D;68284;59.124;37.910;2023-06-19T10:34:36;25.04;30.87
78896;HTU21D;68284;59.124;37.910;2023-06-19T10:37:02;25.02;31.05
78896;HTU21D;68284;59.124;37.910;2023-06-19T10:39:30;25.10;30.99
78896;HTU21D;68284;59.124;37.910;2023-06-19T10:41:56;25.25;30.78
78896;HTU21D;68284;59.124;37.910;2023-06-19T10:44:41;25.34;30.68
78896;HTU21D;68284;59.124;37.910;2023-06-19T10:47:26;25.32;30.70
78896;HTU21D;68284;59.124;37.910;2023-06-19T10:49:54;25.33;30.71
78896;HTU21D;68284;59.124;37.910;2023-06-19T10:52:43;25.42;30.64
78896;HTU21D;68284;59.124;37.910;2023-06-19T10:55:11;25.51;30.58
78896;HTU21D;68284;59.124;37.910;2023-06-19T10:57:56;25.58;30.64
78896;HTU21D;68284;59.124;37.910;2023-06-19T11:00:30;25.69;30.53
78896;HTU21D;68284;59.124;37.910;2023-06-19T11:02:58;25.80;30.38
78896;HTU21D;68284;59.124;37.910;2023-06-19T11:05:26;25.88;30.24
78896;HTU21D;68284;59.124;37.910;2023-06-19T11:08:23;26.04;29.93
78896;HTU21D;68284;59.124;37.910;2023-06-19T11:10:51;26.34;29.40
78896;HTU21D;68284;59.124;37.910;2023-06-19T11:13:20;26.73;28.81
78896;HTU21D;68284;59.124;37.910;2023-06-19T11:15:50;26.95;28.27
78896;HTU21D;68284;59.124;37.910;2023-06-19T11:18:17;27.02;28.28
78896;HTU21D;68284;59.124;37.910;2023-06-19T11:21:03;27.12;28.24
78896;HTU21D;68284;59.124;37.910;2023-06-19T11:23:31;27.15;28.37
78896;HTU21D;68284;59.124;37.910;2023-06-19T11:26:04;27.14;28.08
78896;HTU21D;68284;59.124;37.910;2023-06-19T11:28:32;27.11;27.71
78896;HTU21D;68284;59.124;37.910;2023-06-19T11:31:01;27.04;28.16
78896;HTU21D;68284;59.124;37.910;2023-06-19T11:36:36;26.72;28.19
78896;HTU21D;68284;59.124;37.910;2023-06-19T11:39:24;26.55;28.49
78896;HTU21D;68284;59.124;37.910;2023-06-19T11:41:53;26.33;29.19
78896;HTU21D;68284;59.124;37.910;2023-06-19T11:44:21;26.16;29.58
78896;HTU21D;68284;59.124;37.910;2023-06-19T11:46:48;26.21;29.39
78896;HTU21D;68284;59.124;37.910;2023-06-19T11:49:18;26.50;29.22
78896;HTU21D;68284;59.124;37.910;2023-06-19T11:52:03;26.90;28.60
78896;HTU21D;68284;59.124;37.910;2023-06-19T11:54:30;27.10;28.42
78896;HTU21D;68284;59.124;37.910;2023-06-19T11:56:57;27.38;28.12
78896;HTU21D;68284;59.124;37.910;2023-06-19T11:59:25;27.49;27.95
78896;HTU21D;68284;59.124;37.910;2023-06-19T12:02:13;27.35;28.11
78896;HTU21D;68284;59.124;37.910;2023-06-19T12:04:39;27.19;28.32
78896;HTU21D;68284;59.124;37.910;2023-06-19T12:07:26;27.02;28.51
78896;HTU21D;68284;59.124;37.910;2023-06-19T12:09:54;26.99;28.47
78896;HTU21D;68284;59.124;37.910;2023-06-19T12:12:20;26.87;28.36
78896;HTU21D;68284;59.124;37.910;2023-06-19T12:14:47;26.81;28.43
78896;HTU21D;68284;59.124;37.910;2023-06-19T12:17:15;26.82;28.61
78896;HTU21D;68284;59.124;37.910;2023-06-19T12:20:02;26.86;28.68
78896;HTU21D;68284;59.124;37.910;2023-06-19T12:22:33;26.87;28.53
78896;HTU21D;68284;59.124;37.910;2023-06-19T12:28:00;26.73;28.48
78896;HTU21D;68284;59.124;37.910;2023-06-19T12:30:27;26.64;28.71
78896;HTU21D;68284;59.124;37.910;2023-06-19T12:36:08;26.75;29.00
78896;HTU21D;68284;59.124;37.910;2023-06-19T12:38:45;26.89;28.94
78896;HTU21D;68284;59.124;37.910;2023-06-19T12:41:15;26.93;28.73
78896;HTU21D;68284;59.124;37.910;2023-06-19T12:44:00;26.85;28.86
78896;HTU21D;68284;59.124;37.910;2023-06-19T12:46:27;26.76;28.97
78896;HTU21D;68284;59.124;37.910;2023-06-19T12:48:58;26.63;29.13
78896;HTU21D;68284;59.124;37.910;2023-06-19T12:51:25;26.57;29.19
78896;HTU21D;68284;59.124;37.910;2023-06-19T12:53:52;26.53;29.32
78896;HTU21D;68284;59.124;37.910;2023-06-19T12:56:22;26.49;29.49
78896;HTU21D;68284;59.124;37.910;2023-06-19T12:58:49;26.43;29.57
78896;HTU21D;68284;59.124;37.910;2023-06-19T13:01:15;26.47;29.57
78896;HTU21D;68284;59.124;37.910;2023-06-19T13:03:41;26.63;29.38
78896;HTU21D;68284;59.124;37.910;2023-06-19T13:06:09;26.66;29.36
78896;HTU21D;68284;59.124;37.910;2023-06-19T13:08:35;26.75;29.19
78896;HTU21D;68284;59.124;37.910;2023-06-19T13:11:02;26.99;28.77
78896;HTU21D;68284;59.124;37.910;2023-06-19T13:13:33;27.44;27.87
78896;HTU21D;68284;59.124;37.910;2023-06-19T13:15:59;27.95;27.08
78896;HTU21D;68284;59.124;37.910;2023-06-19T13:18:26;28.34;26.23
78896;HTU21D;68284;59.124;37.910;2023-06-19T13:20:52;28.45;25.72
78896;HTU21D;68284;59.124;37.910;2023-06-19T13:23:18;28.37;25.36
78896;HTU21D;68284;59.124;37.910;2023-06-19T13:25:48;28.18;25.46
78896;HTU21D;68284;59.124;37.910;2023-06-19T13:28:14;28.10;25.57
78896;HTU21D;68284;59.124;37.910;2023-06-19T13:30:41;28.10;25.38
78896;HTU21D;68284;59.124;37.910;2023-06-19T13:33:08;28.19;25.31
78896;HTU21D;68284;59.124;37.910;2023-06-19T13:35:35;28.43;24.99
78896;HTU21D;68284;59.124;37.910;2023-06-19T13:38:03;28.70;24.76
78896;HTU21D;68284;59.124;37.910;2023-06-19T13:40:32;28.97;24.40
78896;HTU21D;68284;59.124;37.910;2023-06-19T13:42:59;29.19;24.12
78896;HTU21D;68284;59.124;37.910;2023-06-19T13:45:26;29.46;23.80
78896;HTU21D;68284;59.124;37.910;2023-06-19T13:47:53;29.62;23.59
78896;HTU21D;68284;59.124;37.910;2023-06-19T13:50:24;29.71;23.47
78896;HTU21D;68284;59.124;37.910;2023-06-19T13:52:53;29.79;23.26
78896;HTU21D;68284;59.124;37.910;2023-06-19T13:55:21;29.75;23.40
78896;HTU21D;68284;59.124;37.910;2023-06-19T13:57:50;29.65;23.37
78896;HTU21D;68284;59.124;37.910;2023-06-19T14:00:18;29.36;23.78
78896;HTU21D;68284;59.124;37.910;2023-06-19T14:02:45;29.05;24.20
78896;HTU21D;68284;59.124;37.910;2023-06-19T14:05:12;28.80;24.62
78896;HTU21D;68284;59.124;37.910;2023-06-19T14:07:40;28.59;24.95
78896;HTU21D;68284;59.124;37.910;2023-06-19T14:10:08;28.47;25.18
78896;HTU21D;68284;59.124;37.910;2023-06-19T14:12:34;28.48;25.30
78896;HTU21D;68284;59.124;37.910;2023-06-19T14:15:01;28.62;25.17
78896;HTU21D;68284;59.124;37.910;2023-06-19T14:17:29;28.78;24.80
78896;HTU21D;68284;59.124;37.910;2023-06-19T14:19:56;28.91;24.72
78896;HTU21D;68284;59.124;37.910;2023-06-19T14:22:26;29.04;24.46
78896;HTU21D;68284;59.124;37.910;2023-06-19T14:24:53;29.14;24.25
78896;HTU21D;68284;59.124;37.910;2023-06-19T14:27:26;29.26;23.98
78896;HTU21D;68284;59.124;37.910;2023-06-19T14:29:56;29.49;23.66
78896;HTU21D;68284;59.124;37.910;2023-06-19T14:32:30;29.66;23.45
78896;HTU21D;68284;59.124;37.910;2023-06-19T14:34:57;29.78;23.21
78896;HTU21D;68284;59.124;37.910;2023-06-19T14:37:27;29.98;22.96
78896;HTU21D;68284;59.124;37.910;2023-06-19T14:39:59;30.24;22.73
78896;HTU21D;68284;59.124;37.910;2023-06-19T14:42:27;30.55;22.35
78896;HTU21D;68284;59.124;37.910;2023-06-19T14:44:54;30.83;22.05
78896;HTU21D;68284;59.124;37.910;2023-06-19T14:47:22;30.93;21.90
78896;HTU21D;68284;59.124;37.910;2023-06-19T14:49:50;30.74;22.02
78896;HTU21D;68284;59.124;37.910;2023-06-19T14:52:20;30.17;22.51
78896;HTU21D;68284;59.124;37.910;2023-06-19T14:54:47;29.45;23.27
78896;HTU21D;68284;59.124;37.910;2023-06-19T14:57:13;28.71;24.14
78896;HTU21D;68284;59.124;37.910;2023-06-19T14:59:40;28.00;25.03
78896;HTU21D;68284;59.124;37.910;2023-06-19T15:02:06;27.41;25.82
78896;HTU21D;68284;59.124;37.910;2023-06-19T15:04:33;26.93;26.55
78896;HTU21D;68284;59.124;37.910;2023-06-19T15:06:59;26.49;27.19
78896;HTU21D;68284;59.124;37.910;2023-06-19T15:09:27;26.05;27.78
78896;HTU21D;68284;59.124;37.910;2023-06-19T15:11:53;25.71;28.34
78896;HTU21D;68284;59.124;37.910;2023-06-19T15:14:19;25.48;28.69
78896;HTU21D;68284;59.124;37.910;2023-06-19T15:16:46;25.24;29.11
78896;HTU21D;68284;59.124;37.910;2023-06-19T15:19:12;25.06;29.45
78896;HTU21D;68284;59.124;37.910;2023-06-19T15:21:41;24.92;29.70
78896;HTU21D;68284;59.124;37.910;2023-06-19T15:24:08;24.84;29.84
78896;HTU21D;68284;59.124;37.910;2023-06-19T15:26:35;24.77;30.19
78896;HTU21D;68284;59.124;37.910;2023-06-19T15:29:04;24.72;30.39
78896;HTU21D;68284;59.124;37.910;2023-06-19T15:31:32;24.66;30.57
78896;HTU21D;68284;59.124;37.910;2023-06-19T15:33:58;24.55;30.80
78896;HTU21D;68284;59.124;37.910;2023-06-19T15:36:25;24.47;31.03
78896;HTU21D;68284;59.124;37.910;2023-06-19T15:38:52;24.42;31.27
78896;HTU21D;68284;59.124;37.910;2023-06-19T15:41:19;24.38;31.28
78896;HTU21D;68284;59.124;37.910;2023-06-19T15:43:45;24.33;31.42
78896;HTU21D;68284;59.124;37.910;2023-06-19T15:46:15;24.28;31.56
78896;HTU21D;68284;59.124;37.910;2023-06-19T15:48:42;24.20;31.67
78896;HTU21D;68284;59.124;37.910;2023-06-19T15:51:09;24.08;31.91